Clorinda, Argentina
Current Conditions -  °F | °C
As of 12:00 AM on Saturday 20 Dec 2014 (Local Time) from SGAS Reporting Station
Clear Clear  
Wind Chill: 26°   Ceiling: Unl
Heat Index: 28°   Visibility: 6mi
Dew Point: 24°   Wind: 2mph
Humidity: 89%   Direction: 60°ENE
Pressure: 29.62"   Gusts: NA
Location:  25.29°S, 57.72°W
Report Text: SGAS 200300Z 06002KT CAVOK 26/24 Q1003
Loading
Personal Weather Stations






























Interactive Weather Map New forecast layout! Learn more

10-Day Weather Forecast

Advertisements
Track Severe Weather on mobile